createdAt,value
2022-12-23T00:04:38.849Z,3.17
2022-12-23T00:09:40.538Z,3.03
2022-12-23T00:15:00.848Z,2.97
2022-12-23T00:20:03.425Z,3.47
2022-12-23T00:25:05.490Z,4.22
2022-12-23T00:30:10.326Z,3.63
2022-12-23T00:35:12.028Z,3.17
2022-12-23T00:40:33.633Z,3.55
2022-12-23T00:45:35.353Z,3.10
2022-12-23T00:50:39.466Z,3.30
2022-12-23T00:55:41.197Z,3.03
2022-12-23T01:01:01.613Z,3.53
2022-12-23T01:06:03.786Z,4.10
2022-12-23T01:11:07.803Z,3.78
2022-12-23T01:16:16.826Z,4.05
2022-12-23T01:21:19.502Z,4.53
2022-12-23T01:26:21.267Z,4.53
2022-12-23T01:31:25.020Z,3.58
2022-12-23T01:36:26.810Z,3.72
2022-12-23T01:41:49.691Z,4.03
2022-12-23T01:46:51.737Z,3.67
2022-12-23T01:51:53.508Z,3.30
2022-12-23T01:56:55.343Z,3.60
2022-12-23T02:02:15.840Z,3.22
2022-12-23T02:07:37.070Z,3.33
2022-12-23T02:12:57.779Z,3.60
2022-12-23T02:18:22.237Z,3.13
2022-12-23T02:23:54.977Z,3.92
2022-12-23T02:29:30.098Z,3.70
2022-12-23T02:34:34.794Z,4.60
2022-12-23T02:40:05.932Z,4.70
2022-12-23T02:45:18.634Z,3.70
2022-12-23T02:50:28.157Z,3.90
2022-12-23T02:55:34.497Z,3.67
2022-12-23T03:00:38.347Z,4.07
2022-12-23T03:05:44.959Z,3.65
2022-12-23T03:11:16.931Z,3.05
2022-12-23T03:16:53.851Z,2.50
2022-12-23T03:22:12.317Z,2.75
2022-12-23T03:27:22.122Z,3.13
2022-12-23T03:32:26.044Z,3.63
2022-12-23T03:37:30.496Z,6.03
2022-12-23T03:47:45.376Z,5.82
2022-12-23T03:53:12.932Z,6.80
2022-12-23T03:58:34.019Z,6.57
2022-12-23T04:04:15.382Z,6.68
2022-12-23T04:09:22.213Z,5.75
2022-12-23T04:14:24.449Z,7.05
2022-12-23T04:19:26.334Z,6.53
2022-12-23T04:24:28.085Z,7.30
2022-12-23T04:29:29.797Z,7.90
2022-12-23T04:34:31.518Z,8.55
2022-12-23T04:39:33.262Z,8.63
2022-12-23T04:44:35.155Z,7.97
2022-12-23T04:49:36.902Z,7.50
2022-12-23T04:54:43.993Z,7.03
2022-12-23T04:59:47.875Z,7.35
2022-12-23T05:04:49.595Z,7.00
2022-12-23T05:09:51.301Z,7.13
2022-12-23T05:14:52.991Z,7.13
2022-12-23T05:19:54.699Z,6.57
2022-12-23T05:24:56.380Z,6.25
2022-12-23T05:29:58.153Z,6.07
2022-12-23T05:34:59.830Z,7.40
2022-12-23T05:40:01.623Z,7.55
2022-12-23T05:45:03.952Z,7.25
2022-12-23T05:50:06.298Z,8.70
2022-12-23T05:55:09.082Z,9.18
2022-12-23T06:00:11.245Z,9.20
2022-12-23T06:05:15.802Z,9.75
2022-12-23T06:10:18.606Z,9.25
2022-12-23T06:15:20.347Z,9.93
2022-12-23T06:20:22.170Z,9.45
2022-12-23T06:25:24.260Z,7.30
2022-12-23T06:30:27.361Z,8.20
2022-12-23T06:35:29.076Z,12.48
2022-12-23T06:40:30.899Z,11.90
2022-12-23T06:45:32.843Z,13.35
2022-12-23T06:50:34.648Z,15.55
2022-12-23T06:55:36.492Z,14.27
2022-12-23T07:00:38.224Z,16.13
2022-12-23T07:05:39.907Z,14.20
2022-12-23T07:10:41.672Z,15.05
2022-12-23T07:15:43.408Z,19.33
2022-12-23T07:20:45.120Z,27.77
2022-12-23T07:25:46.812Z,25.50
2022-12-23T07:30:48.573Z,14.23
2022-12-23T07:35:50.241Z,16.20
2022-12-23T07:40:51.957Z,11.52
2022-12-23T07:45:59.464Z,9.90
2022-12-23T07:51:03.666Z,10.43
2022-12-23T07:56:05.888Z,9.82
2022-12-23T08:01:08.039Z,9.18
2022-12-23T08:06:12.658Z,8.75
2022-12-23T08:11:15.975Z,5.55
2022-12-23T08:16:17.731Z,4.68
2022-12-23T08:21:19.964Z,2.80
2022-12-23T08:26:23.381Z,2.70
2022-12-23T08:31:34.048Z,2.73
2022-12-23T08:36:36.517Z,3.53
2022-12-23T08:41:41.565Z,2.85
2022-12-23T08:46:43.908Z,2.58
2022-12-23T08:51:46.337Z,2.75
2022-12-23T08:56:48.102Z,1.90
2022-12-23T09:01:49.925Z,1.48
2022-12-23T09:06:51.708Z,1.30
2022-12-23T09:11:53.437Z,1.00
2022-12-23T09:16:55.172Z,0.90
2022-12-23T09:21:56.894Z,0.70
2022-12-23T09:26:58.585Z,0.70
2022-12-23T09:32:00.492Z,0.73
2022-12-23T09:37:03.010Z,1.08
2022-12-23T09:42:26.515Z,0.80
2022-12-23T09:47:30.575Z,0.68
2022-12-23T09:53:00.609Z,0.77
2022-12-23T09:58:10.545Z,1.00
2022-12-23T10:03:22.170Z,2.13
2022-12-23T10:08:37.459Z,2.10
2022-12-23T10:13:43.493Z,1.77
2022-12-23T10:19:09.602Z,1.88
2022-12-23T10:24:26.521Z,2.88
2022-12-23T10:29:32.906Z,2.88
2022-12-23T10:35:00.813Z,2.75
2022-12-23T10:40:14.115Z,4.35
2022-12-23T10:45:21.303Z,3.90
2022-12-23T10:50:47.352Z,4.07
2022-12-23T10:55:50.567Z,7.20
2022-12-23T11:00:55.869Z,9.60
2022-12-23T11:05:58.831Z,4.60
2022-12-23T11:11:01.456Z,4.30
2022-12-23T11:16:27.367Z,4.72
2022-12-23T11:21:31.124Z,5.57
2022-12-23T11:26:33.145Z,6.65
2022-12-23T11:31:36.743Z,5.80
2022-12-23T11:36:38.796Z,5.22
2022-12-23T11:41:44.616Z,5.70
2022-12-23T11:46:46.572Z,5.15
2022-12-23T11:52:10.402Z,5.55
2022-12-23T11:57:20.388Z,6.17
2022-12-23T12:02:39.194Z,5.93
2022-12-23T12:07:43.498Z,6.40
2022-12-23T12:17:56.629Z,7.93
2022-12-23T12:23:17.307Z,8.50
2022-12-23T12:28:23.350Z,8.32
2022-12-23T12:33:38.300Z,8.93
2022-12-23T12:38:40.231Z,8.55
2022-12-23T12:43:52.490Z,8.98
2022-12-23T12:49:06.102Z,9.77
2022-12-23T12:54:22.510Z,8.30
2022-12-23T12:59:35.611Z,9.40
2022-12-23T13:05:07.879Z,7.65
2022-12-23T13:10:29.559Z,6.20
2022-12-23T13:15:38.184Z,5.35
2022-12-23T13:20:46.404Z,4.28
2022-12-23T13:25:57.536Z,4.18
2022-12-23T13:31:33.380Z,3.80
2022-12-23T13:36:51.273Z,3.20
2022-12-23T13:42:01.396Z,3.90
2022-12-23T13:47:24.661Z,2.55
2022-12-23T13:53:04.032Z,1.90
2022-12-23T13:58:19.794Z,2.20
2022-12-23T14:03:24.564Z,2.35
2022-12-23T14:08:41.784Z,2.15
2022-12-23T14:14:04.859Z,8.60
2022-12-23T14:19:31.542Z,1.73
2022-12-23T14:25:10.532Z,2.13
2022-12-23T14:30:35.774Z,6.57
2022-12-23T14:35:42.936Z,2.50
2022-12-23T14:40:53.533Z,2.90
2022-12-23T14:45:57.759Z,2.50
2022-12-23T14:56:23.374Z,3.10
2022-12-23T15:01:48.987Z,2.50
2022-12-23T15:06:55.215Z,2.30
2022-12-23T15:12:00.348Z,2.50
2022-12-23T15:17:24.581Z,2.50
2022-12-23T15:22:32.650Z,2.50
2022-12-23T15:27:36.893Z,3.50
2022-12-23T15:32:41.471Z,2.13
2022-12-23T15:37:43.840Z,2.78
2022-12-23T15:42:49.095Z,11.23
2022-12-23T15:47:51.036Z,3.70
2022-12-23T15:52:56.036Z,3.95
2022-12-23T15:57:59.059Z,4.10
2022-12-23T16:03:02.912Z,4.32
2022-12-23T16:08:16.138Z,2.90
2022-12-23T16:13:19.674Z,4.25
2022-12-23T16:18:21.369Z,3.87
2022-12-23T16:23:28.663Z,4.68
2022-12-23T16:28:39.537Z,5.50
2022-12-23T16:33:49.116Z,6.53
2022-12-23T16:39:00.808Z,9.48
2022-12-23T16:44:03.526Z,9.05
2022-12-23T16:49:08.383Z,6.28
2022-12-23T16:54:17.809Z,6.85
2022-12-23T16:59:20.559Z,8.38
2022-12-23T17:04:22.318Z,7.25
2022-12-23T17:09:23.993Z,8.00
2022-12-23T17:14:26.044Z,7.93
2022-12-23T17:19:29.274Z,9.60
2022-12-23T17:24:31.458Z,8.23
2022-12-23T17:29:33.141Z,8.57
2022-12-23T17:34:34.871Z,8.32
2022-12-23T17:39:36.566Z,7.32
2022-12-23T17:44:38.227Z,7.30
2022-12-23T17:49:39.990Z,5.97
2022-12-23T17:54:42.566Z,7.15
2022-12-23T17:59:47.707Z,8.18
2022-12-23T18:04:50.628Z,6.40
2022-12-23T18:09:53.287Z,5.88
2022-12-23T18:14:55.864Z,5.85
2022-12-23T18:19:57.840Z,8.02
2022-12-23T18:24:59.774Z,4.85
2022-12-23T18:30:01.546Z,4.47
2022-12-23T18:35:12.432Z,2.20
2022-12-23T18:40:14.311Z,2.20
2022-12-23T18:45:36.153Z,2.08
2022-12-23T18:50:40.317Z,1.80
2022-12-23T18:55:42.092Z,1.25
2022-12-23T19:00:44.818Z,1.20
2022-12-23T19:05:48.446Z,1.10
2022-12-23T19:10:51.083Z,1.60
2022-12-23T19:15:53.062Z,1.23
2022-12-23T19:20:54.800Z,1.35
2022-12-23T19:25:56.489Z,1.50
2022-12-23T19:30:58.283Z,1.92
2022-12-23T19:36:00.206Z,0.93
2022-12-23T19:41:01.955Z,1.65
2022-12-23T19:46:09.407Z,1.50
2022-12-23T19:51:13.624Z,2.83
2022-12-23T19:56:17.149Z,1.10
2022-12-23T20:01:21.962Z,1.07
2022-12-23T20:06:27.044Z,0.88
2022-12-23T20:11:30.613Z,1.10
2022-12-23T20:16:33.637Z,1.10
2022-12-23T20:21:37.258Z,1.20
2022-12-23T20:26:39.907Z,1.80
2022-12-23T20:31:41.927Z,1.30
2022-12-23T20:36:43.958Z,1.52
2022-12-23T20:41:45.713Z,1.42
2022-12-23T20:46:47.462Z,1.50
2022-12-23T20:51:49.225Z,1.30
2022-12-23T20:56:50.916Z,0.85
2022-12-23T21:01:52.684Z,1.65
2022-12-23T21:06:54.482Z,1.23
2022-12-23T21:11:56.293Z,1.30
2022-12-23T21:16:58.090Z,1.42
2022-12-23T21:21:59.994Z,1.25
2022-12-23T21:27:01.754Z,1.10
2022-12-23T21:32:03.687Z,1.05
2022-12-23T21:37:05.482Z,1.17
2022-12-23T21:42:07.222Z,2.17
2022-12-23T21:47:08.934Z,1.10
2022-12-23T21:52:10.714Z,1.13
2022-12-23T21:57:12.482Z,1.60
2022-12-23T22:02:17.540Z,1.50
2022-12-23T22:07:19.317Z,1.65
2022-12-23T22:12:21.097Z,1.33
2022-12-23T22:17:22.861Z,1.30
2022-12-23T22:22:24.599Z,1.50
2022-12-23T22:27:26.348Z,1.25
2022-12-23T22:32:28.105Z,1.23
2022-12-23T22:37:29.844Z,0.95
2022-12-23T22:42:32.726Z,1.23
2022-12-23T22:47:34.425Z,1.30
2022-12-23T22:52:36.377Z,1.25
2022-12-23T22:57:38.066Z,1.35
2022-12-23T23:02:39.774Z,1.58
2022-12-23T23:07:41.484Z,1.35
2022-12-23T23:12:44.299Z,1.58
2022-12-23T23:17:46.017Z,1.33
2022-12-23T23:22:47.725Z,1.60
2022-12-23T23:27:49.434Z,1.35
2022-12-23T23:32:51.125Z,1.63
2022-12-23T23:37:52.849Z,1.98
2022-12-23T23:42:54.766Z,1.60
2022-12-23T23:47:56.762Z,1.20
2022-12-23T23:52:58.542Z,1.55
2022-12-23T23:58:00.281Z,1.40
